sensor_id;sensor_type;location;lat;lon;timestamp;pressure;altitude;pressure_sealevel;temperature;humidity
48624;BME280;34422;45.802;16.114;2023-11-19T00:00:08;63860.97;;;0.61;100.00
48624;BME280;34422;45.802;16.114;2023-11-19T00:02:41;63871.63;;;0.71;100.00
48624;BME280;34422;45.802;16.114;2023-11-19T00:05:09;63898.28;;;0.94;100.00
48624;BME280;34422;45.802;16.114;2023-11-19T00:07:38;63895.56;;;0.86;100.00
48624;BME280;34422;45.802;16.114;2023-11-19T00:10:12;63921.22;;;1.16;100.00
48624;BME280;34422;45.802;16.114;2023-11-19T00:12:41;63932.47;;;1.29;100.00
48624;BME280;34422;45.802;16.114;2023-11-19T00:15:09;63945.75;;;1.36;100.00
48624;BME280;34422;45.802;16.114;2023-11-19T00:17:39;63943.59;;;1.32;100.00
48624;BME280;34422;45.802;16.114;2023-11-19T00:20:17;63958.63;;;1.54;100.00
48624;BME280;34422;45.802;16.114;2023-11-19T00:22:45;63969.72;;;1.54;100.00
48624;BME280;34422;45.802;16.114;2023-11-19T00:25:18;63973.03;;;1.67;100.00
48624;BME280;34422;45.802;16.114;2023-11-19T00:27:45;63978.88;;;1.70;100.00
48624;BME280;34422;45.802;16.114;2023-11-19T00:30:13;63994.34;;;1.83;100.00
48624;BME280;34422;45.802;16.114;2023-11-19T00:32:41;63998.63;;;1.87;100.00
48624;BME280;34422;45.802;16.114;2023-11-19T00:35:09;63998.63;;;1.87;100.00
48624;BME280;34422;45.802;16.114;2023-11-19T00:37:42;64009.28;;;1.97;100.00
48624;BME280;34422;45.802;16.114;2023-11-19T00:40:12;64003.94;;;1.92;100.00
48624;BME280;34422;45.802;16.114;2023-11-19T00:42:39;64021.00;;;2.05;100.00
48624;BME280;34422;45.802;16.114;2023-11-19T00:45:06;64019.97;;;2.07;100.00
48624;BME280;34422;45.802;16.114;2023-11-19T00:47:36;64006.16;;;1.99;100.00
48624;BME280;34422;45.802;16.114;2023-11-19T00:50:03;64001.84;;;1.92;100.00
48624;BME280;34422;45.802;16.114;2023-11-19T00:52:30;64002.91;;;1.93;100.00
48624;BME280;34422;45.802;16.114;2023-11-19T00:54:57;63998.63;;;1.87;100.00
48624;BME280;34422;45.802;16.114;2023-11-19T00:57:24;63991.13;;;1.79;100.00
48624;BME280;34422;45.802;16.114;2023-11-19T00:59:53;63966.03;;;1.56;100.00
48624;BME280;34422;45.802;16.114;2023-11-19T01:02:20;63950.06;;;1.43;100.00
48624;BME280;34422;45.802;16.114;2023-11-19T01:04:47;63942.03;;;1.33;100.00
48624;BME280;34422;45.802;16.114;2023-11-19T01:07:14;63943.13;;;1.39;100.00
48624;BME280;34422;45.802;16.114;2023-11-19T01:09:44;63964.44;;;1.54;100.00
48624;BME280;34422;45.802;16.114;2023-11-19T01:12:11;63961.22;;;1.51;100.00
48624;BME280;34422;45.802;16.114;2023-11-19T01:14:38;63935.66;;;1.32;100.00
48624;BME280;34422;45.802;16.114;2023-11-19T01:17:05;63969.78;;;1.59;100.00
48624;BME280;34422;45.802;16.114;2023-11-19T01:19:31;63968.25;;;1.65;100.00
48624;BME280;34422;45.802;16.114;2023-11-19T01:21:59;63993.78;;;1.79;100.00
48624;BME280;34422;45.802;16.114;2023-11-19T01:24:26;63995.41;;;1.84;100.00
48624;BME280;34422;45.802;16.114;2023-11-19T01:26:55;63996.00;;;1.89;100.00
48624;BME280;34422;45.802;16.114;2023-11-19T01:29:24;64010.41;;;2.00;100.00
48624;BME280;34422;45.802;16.114;2023-11-19T01:31:51;64006.09;;;1.94;100.00
48624;BME280;34422;45.802;16.114;2023-11-19T01:34:18;64016.78;;;2.04;100.00
48624;BME280;34422;45.802;16.114;2023-11-19T01:36:46;63986.91;;;1.81;100.00
48624;BME280;34422;45.802;16.114;2023-11-19T01:39:14;64019.44;;;2.06;100.00
48624;BME280;34422;45.802;16.114;2023-11-19T01:41:43;64015.75;;;2.08;100.00
48624;BME280;34422;45.802;16.114;2023-11-19T01:44:10;64031.22;;;2.18;100.00
48624;BME280;34422;45.802;16.114;2023-11-19T01:46:44;64012.53;;;2.02;100.00
48624;BME280;34422;45.802;16.114;2023-11-19T01:49:18;64014.69;;;2.07;100.00
48624;BME280;34422;45.802;16.114;2023-11-19T01:51:47;64012.50;;;2.00;100.00
48624;BME280;34422;45.802;16.114;2023-11-19T01:54:14;64011.44;;;1.99;100.00
48624;BME280;34422;45.802;16.114;2023-11-19T01:56:42;64013.56;;;2.01;100.00
48624;BME280;34422;45.802;16.114;2023-11-19T01:59:11;64014.16;;;2.04;100.00
48624;BME280;34422;45.802;16.114;2023-11-19T02:01:40;64027.47;;;2.14;100.00
48624;BME280;34422;45.802;16.114;2023-11-19T02:04:08;64023.19;;;2.10;100.00
48624;BME280;34422;45.802;16.114;2023-11-19T02:06:40;64016.78;;;2.04;100.00
48624;BME280;34422;45.802;16.114;2023-11-19T02:09:08;64018.94;;;2.08;100.00
48624;BME280;34422;45.802;16.114;2023-11-19T02:11:35;64034.94;;;2.21;100.00
48624;BME280;34422;45.802;16.114;2023-11-19T02:14:02;64032.78;;;2.19;100.00
48624;BME280;34422;45.802;16.114;2023-11-19T02:16:33;64024.25;;;2.11;100.00
48624;BME280;34422;45.802;16.114;2023-11-19T02:19:01;64039.22;;;2.25;100.00
48624;BME280;34422;45.802;16.114;2023-11-19T02:21:28;64040.88;;;2.32;100.00
48624;BME280;34422;45.802;16.114;2023-11-19T02:23:55;64045.63;;;2.31;100.00
48624;BME280;34422;45.802;16.114;2023-11-19T02:28:50;64065.38;;;2.47;100.00
48624;BME280;34422;45.802;16.114;2023-11-19T02:31:17;64059.53;;;2.47;100.00
48624;BME280;34422;45.802;16.114;2023-11-19T02:33:45;64062.19;;;2.47;100.00
48624;BME280;34422;45.802;16.114;2023-11-19T02:36:12;64060.63;;;2.50;100.00
48624;BME280;34422;45.802;16.114;2023-11-19T02:38:39;64065.44;;;2.53;100.00
48624;BME280;34422;45.802;16.114;2023-11-19T02:41:07;64057.38;;;2.42;100.00
48624;BME280;34422;45.802;16.114;2023-11-19T02:43:36;64062.25;;;2.52;100.00
48624;BME280;34422;45.802;16.114;2023-11-19T02:46:04;64060.59;;;2.45;100.00
48624;BME280;34422;45.802;16.114;2023-11-19T02:48:34;64063.28;;;2.50;100.00
48624;BME280;34422;45.802;16.114;2023-11-19T02:51:05;64068.63;;;2.56;100.00
48624;BME280;34422;45.802;16.114;2023-11-19T02:53:35;64071.31;;;2.61;100.00
48624;BME280;34422;45.802;16.114;2023-11-19T02:56:04;64077.69;;;2.62;100.00
48624;BME280;34422;45.802;16.114;2023-11-19T02:58:52;64078.75;;;2.63;100.00
48624;BME280;34422;45.802;16.114;2023-11-19T03:01:23;64070.28;;;2.60;100.00
48624;BME280;34422;45.802;16.114;2023-11-19T03:04:00;64079.81;;;2.64;100.00
48624;BME280;34422;45.802;16.114;2023-11-19T03:06:27;64080.34;;;2.62;100.00
48624;BME280;34422;45.802;16.114;2023-11-19T03:08:55;64082.47;;;2.64;100.00
48624;BME280;34422;45.802;16.114;2023-11-19T03:11:22;64077.75;;;2.67;100.00
48624;BME280;34422;45.802;16.114;2023-11-19T03:13:52;64070.28;;;2.60;100.00
48624;BME280;34422;45.802;16.114;2023-11-19T03:16:19;64080.38;;;2.64;100.00
48624;BME280;34422;45.802;16.114;2023-11-19T03:18:49;64075.56;;;2.60;100.00
48624;BME280;34422;45.802;16.114;2023-11-19T03:21:17;64073.44;;;2.58;100.00
48624;BME280;34422;45.802;16.114;2023-11-19T03:23:48;64072.88;;;2.57;100.00
48624;BME280;34422;45.802;16.114;2023-11-19T03:26:15;64066.00;;;2.56;100.00
48624;BME280;34422;45.802;16.114;2023-11-19T03:28:42;64065.44;;;2.55;100.00
48624;BME280;34422;45.802;16.114;2023-11-19T03:31:09;64064.31;;;2.49;100.00
48624;BME280;34422;45.802;16.114;2023-11-19T03:33:50;64063.78;;;2.46;100.00
48624;BME280;34422;45.802;16.114;2023-11-19T03:36:17;64053.16;;;2.43;100.00
48624;BME280;34422;45.802;16.114;2023-11-19T03:38:44;64054.19;;;2.39;100.00
48624;BME280;34422;45.802;16.114;2023-11-19T03:41:14;64064.31;;;2.49;100.00
48624;BME280;34422;45.802;16.114;2023-11-19T03:43:41;64063.78;;;2.48;100.00
48624;BME280;34422;45.802;16.114;2023-11-19T03:46:20;64063.28;;;2.50;100.00
48624;BME280;34422;45.802;16.114;2023-11-19T03:48:48;64060.63;;;2.50;100.00
48624;BME280;34422;45.802;16.114;2023-11-19T03:51:16;64057.94;;;2.45;100.00
48624;BME280;34422;45.802;16.114;2023-11-19T03:53:47;64058.50;;;2.46;100.00
48624;BME280;34422;45.802;16.114;2023-11-19T03:56:13;64046.22;;;2.37;100.00
48624;BME280;34422;45.802;16.114;2023-11-19T03:58:41;64044.59;;;2.35;100.00
48624;BME280;34422;45.802;16.114;2023-11-19T04:01:12;64045.13;;;2.33;100.00
48624;BME280;34422;45.802;16.114;2023-11-19T04:03:42;64050.97;;;2.36;100.00
48624;BME280;34422;45.802;16.114;2023-11-19T04:06:15;64056.34;;;2.44;100.00
48624;BME280;34422;45.802;16.114;2023-11-19T04:08:43;64061.66;;;2.46;100.00
48624;BME280;34422;45.802;16.114;2023-11-19T04:11:11;64057.97;;;2.48;100.00
48624;BME280;34422;45.802;16.114;2023-11-19T04:13:40;64073.44;;;2.58;100.00
48624;BME280;34422;45.802;16.114;2023-11-19T04:16:08;64057.94;;;2.45;100.00
48624;BME280;34422;45.802;16.114;2023-11-19T04:18:38;64060.59;;;2.48;100.00
48624;BME280;34422;45.802;16.114;2023-11-19T04:21:10;64029.59;;;2.16;100.00
48624;BME280;34422;45.802;16.114;2023-11-19T04:23:40;64042.47;;;2.33;100.00
48624;BME280;34422;45.802;16.114;2023-11-19T04:26:08;64020.03;;;2.12;100.00
48624;BME280;34422;45.802;16.114;2023-11-19T04:28:35;64024.31;;;2.16;100.00
48624;BME280;34422;45.802;16.114;2023-11-19T04:31:07;64019.97;;;2.07;100.00
48624;BME280;34422;45.802;16.114;2023-11-19T04:33:35;64008.22;;;1.96;100.00
48624;BME280;34422;45.802;16.114;2023-11-19T04:36:02;64004.53;;;1.97;100.00
48624;BME280;34422;45.802;16.114;2023-11-19T04:38:29;63995.41;;;1.84;100.00
48624;BME280;34422;45.802;16.114;2023-11-19T04:40:57;63998.09;;;1.86;100.00
48624;BME280;34422;45.802;16.114;2023-11-19T04:43:27;64005.09;;;1.98;100.00
48624;BME280;34422;45.802;16.114;2023-11-19T04:45:54;64017.34;;;2.07;100.00
48624;BME280;34422;45.802;16.114;2023-11-19T04:48:21;64011.50;;;2.04;100.00
48624;BME280;34422;45.802;16.114;2023-11-19T04:50:53;64020.00;;;2.09;100.00
48624;BME280;34422;45.802;16.114;2023-11-19T04:53:23;64023.72;;;2.10;100.00
48624;BME280;34422;45.802;16.114;2023-11-19T04:55:55;64033.88;;;2.20;100.00
48624;BME280;34422;45.802;16.114;2023-11-19T04:58:22;64040.78;;;2.24;100.00
48624;BME280;34422;45.802;16.114;2023-11-19T05:00:51;64041.88;;;2.25;100.00
48624;BME280;34422;45.802;16.114;2023-11-19T05:03:19;64036.06;;;2.27;100.00
48624;BME280;34422;45.802;16.114;2023-11-19T05:05:52;64035.03;;;2.29;100.00
48624;BME280;34422;45.802;16.114;2023-11-19T05:08:24;64042.44;;;2.28;100.00
48624;BME280;34422;45.802;16.114;2023-11-19T05:10:51;64045.63;;;2.31;100.00
48624;BME280;34422;45.802;16.114;2023-11-19T05:13:18;64045.63;;;2.31;100.00
48624;BME280;34422;45.802;16.114;2023-11-19T05:15:45;64043.50;;;2.29;100.00
48624;BME280;34422;45.802;16.114;2023-11-19T05:18:12;64041.34;;;2.27;100.00
48624;BME280;34422;45.802;16.114;2023-11-19T05:20:39;64040.84;;;2.29;100.00
48624;BME280;34422;45.802;16.114;2023-11-19T05:23:06;64039.22;;;2.25;100.00
48624;BME280;34422;45.802;16.114;2023-11-19T05:25:33;64036.53;;;2.23;100.00
48624;BME280;34422;45.802;16.114;2023-11-19T05:28:00;64027.47;;;2.14;100.00
48624;BME280;34422;45.802;16.114;2023-11-19T05:30:27;64020.50;;;2.07;100.00
48624;BME280;34422;45.802;16.114;2023-11-19T05:32:54;64034.47;;;2.26;100.00
48624;BME280;34422;45.802;16.114;2023-11-19T05:35:21;64039.78;;;2.28;100.00
48624;BME280;34422;45.802;16.114;2023-11-19T05:37:52;64042.44;;;2.28;100.00
48624;BME280;34422;45.802;16.114;2023-11-19T05:40:19;64042.44;;;2.28;100.00
48624;BME280;34422;45.802;16.114;2023-11-19T05:42:47;64048.28;;;2.34;100.00
48624;BME280;34422;45.802;16.114;2023-11-19T05:45:18;64048.31;;;2.36;100.00
48624;BME280;34422;45.802;16.114;2023-11-19T05:47:48;64047.25;;;2.35;100.00
48624;BME280;34422;45.802;16.114;2023-11-19T05:50:21;64040.88;;;2.32;100.00
48624;BME280;34422;45.802;16.114;2023-11-19T05:52:58;64046.72;;;2.32;100.00
48624;BME280;34422;45.802;16.114;2023-11-19T05:55:43;64044.56;;;2.33;100.00
48624;BME280;34422;45.802;16.114;2023-11-19T05:58:29;64053.09;;;2.38;100.00
48624;BME280;34422;45.802;16.114;2023-11-19T06:00:59;64044.03;;;2.30;100.00
48624;BME280;34422;45.802;16.114;2023-11-19T06:03:27;64049.38;;;2.37;100.00
48624;BME280;34422;45.802;16.114;2023-11-19T06:06:09;64050.47;;;2.38;100.00
48624;BME280;34422;45.802;16.114;2023-11-19T06:08:38;64038.69;;;2.25;100.00
48624;BME280;34422;45.802;16.114;2023-11-19T06:11:09;64039.22;;;2.25;100.00
48624;BME280;34422;45.802;16.114;2023-11-19T06:13:42;64047.22;;;2.33;100.00
48624;BME280;34422;45.802;16.114;2023-11-19T06:16:10;64015.75;;;2.08;100.00
48624;BME280;34422;45.802;16.114;2023-11-19T06:18:37;64029.66;;;2.21;100.00
48624;BME280;34422;45.802;16.114;2023-11-19T06:21:04;64033.31;;;2.17;100.00
48624;BME280;34422;45.802;16.114;2023-11-19T06:23:31;64039.22;;;2.25;100.00
48624;BME280;34422;45.802;16.114;2023-11-19T06:25:58;64035.53;;;2.27;100.00
48624;BME280;34422;45.802;16.114;2023-11-19T06:28:25;64028.00;;;2.14;100.00
48624;BME280;34422;45.802;16.114;2023-11-19T06:30:52;64037.66;;;2.29;100.00
48624;BME280;34422;45.802;16.114;2023-11-19T06:33:19;64043.00;;;2.31;100.00
48624;BME280;34422;45.802;16.114;2023-11-19T06:35:46;64044.56;;;2.30;100.00
48624;BME280;34422;45.802;16.114;2023-11-19T06:38:12;64078.72;;;2.58;100.00
48624;BME280;34422;45.802;16.114;2023-11-19T06:40:40;64078.22;;;2.62;100.00
48624;BME280;34422;45.802;16.114;2023-11-19T06:43:10;64085.75;;;2.72;100.00
48624;BME280;34422;45.802;16.114;2023-11-19T06:45:42;64093.19;;;2.76;100.00
48624;BME280;34422;45.802;16.114;2023-11-19T06:48:12;64093.25;;;2.81;100.00
48624;BME280;34422;45.802;16.114;2023-11-19T06:50:44;64101.75;;;2.84;100.00
48624;BME280;34422;45.802;16.114;2023-11-19T06:53:17;64105.53;;;2.93;100.00
48624;BME280;34422;45.802;16.114;2023-11-19T06:55:44;64074.50;;;2.59;100.00
48624;BME280;34422;45.802;16.114;2023-11-19T06:58:12;64098.00;;;2.81;100.00
48624;BME280;34422;45.802;16.114;2023-11-19T07:00:41;64111.84;;;2.89;100.00
48624;BME280;34422;45.802;16.114;2023-11-19T07:03:09;64105.50;;;2.91;100.00
48624;BME280;34422;45.802;16.114;2023-11-19T07:05:41;64093.72;;;2.77;100.00
48624;BME280;34422;45.802;16.114;2023-11-19T07:08:11;64106.56;;;2.89;100.00
48624;BME280;34422;45.802;16.114;2023-11-19T07:10:38;64101.75;;;2.87;100.00
48624;BME280;34422;45.802;16.114;2023-11-19T07:13:06;64124.72;;;3.06;100.00
48624;BME280;34422;45.802;16.114;2023-11-19T07:15:33;64114.09;;;3.01;100.00
48624;BME280;34422;45.802;16.114;2023-11-19T07:18:00;64114.59;;;2.97;100.00
48624;BME280;34422;45.802;16.114;2023-11-19T07:20:27;64118.88;;;3.03;100.00
48624;BME280;34422;45.802;16.114;2023-11-19T07:22:54;64121.03;;;3.08;100.00
48624;BME280;34422;45.802;16.114;2023-11-19T07:25:23;64129.06;;;3.15;100.00
48624;BME280;34422;45.802;16.114;2023-11-19T07:27:51;64120.44;;;3.02;100.00
48624;BME280;34422;45.802;16.114;2023-11-19T07:30:18;64134.88;;;3.16;100.00
48624;BME280;34422;45.802;16.114;2023-11-19T07:32:48;64120.44;;;3.02;100.00
48624;BME280;34422;45.802;16.114;2023-11-19T07:35:15;64106.59;;;2.94;100.00
48624;BME280;34422;45.802;16.114;2023-11-19T07:37:45;64095.34;;;2.81;100.00
48624;BME280;34422;45.802;16.114;2023-11-19T07:40:14;64137.06;;;3.20;100.00
48624;BME280;34422;45.802;16.114;2023-11-19T07:42:44;64168.59;;;3.48;100.00
48624;BME280;34422;45.802;16.114;2023-11-19T07:45:11;64148.81;;;3.32;100.00
48624;BME280;34422;45.802;16.114;2023-11-19T07:47:43;64150.97;;;3.34;100.00
48624;BME280;34422;45.802;16.114;2023-11-19T07:50:17;64137.03;;;3.18;100.00
48624;BME280;34422;45.802;16.114;2023-11-19T07:52:47;64145.59;;;3.29;100.00
48624;BME280;34422;45.802;16.114;2023-11-19T07:55:13;64148.81;;;3.32;100.00
48624;BME280;34422;45.802;16.114;2023-11-19T07:57:43;64161.13;;;3.41;100.00
48624;BME280;34422;45.802;16.114;2023-11-19T08:00:11;64176.09;;;3.55;100.00
48624;BME280;34422;45.802;16.114;2023-11-19T08:02:40;64164.34;;;3.49;100.00
48624;BME280;34422;45.802;16.114;2023-11-19T08:05:10;64161.13;;;3.43;100.00
48624;BME280;34422;45.802;16.114;2023-11-19T08:07:40;64145.06;;;3.26;100.00
48624;BME280;34422;45.802;16.114;2023-11-19T08:10:07;64150.97;;;3.34;100.00
48624;BME280;34422;45.802;16.114;2023-11-19T08:12:36;64142.41;;;3.26;100.00
48624;BME280;34422;45.802;16.114;2023-11-19T08:15:04;64154.72;;;3.37;100.00
48624;BME280;34422;45.802;16.114;2023-11-19T08:17:31;64170.78;;;3.55;100.00
48624;BME280;34422;45.802;16.114;2023-11-19T08:19:58;64176.63;;;3.58;100.00
48624;BME280;34422;45.802;16.114;2023-11-19T08:22:29;64188.97;;;3.72;100.00
48624;BME280;34422;45.802;16.114;2023-11-19T08:24:56;64175.06;;;3.59;100.00
48624;BME280;34422;45.802;16.114;2023-11-19T08:27:23;64167.00;;;3.49;100.00
48624;BME280;34422;45.802;16.114;2023-11-19T08:29:54;64153.63;;;3.34;100.00
48624;BME280;34422;45.802;16.114;2023-11-19T08:32:24;64157.94;;;3.43;100.00
48624;BME280;34422;45.802;16.114;2023-11-19T08:34:51;64170.78;;;3.55;100.00
48624;BME280;34422;45.802;16.114;2023-11-19T08:37:18;64154.22;;;3.42;100.00
48624;BME280;34422;45.802;16.114;2023-11-19T08:39:48;64161.16;;;3.46;100.00
48624;BME280;34422;45.802;16.114;2023-11-19T08:42:15;64172.91;;;3.54;100.00
48624;BME280;34422;45.802;16.114;2023-11-19T08:44:48;64162.72;;;3.45;100.00
48624;BME280;34422;45.802;16.114;2023-11-19T08:47:17;64162.75;;;3.47;100.00
48624;BME280;34422;45.802;16.114;2023-11-19T08:49:52;64204.97;;;3.82;100.00
48624;BME280;34422;45.802;16.114;2023-11-19T08:52:19;64228.53;;;4.05;100.00
48624;BME280;34422;45.802;16.114;2023-11-19T08:54:46;64279.94;;;4.56;100.00
48624;BME280;34422;45.802;16.114;2023-11-19T08:57:12;64276.72;;;4.55;100.00
48624;BME280;34422;45.802;16.114;2023-11-19T08:59:39;64296.56;;;4.74;100.00
48624;BME280;34422;45.802;16.114;2023-11-19T09:02:32;64298.16;;;4.76;100.00
48624;BME280;34422;45.802;16.114;2023-11-19T09:05:26;64285.25;;;4.58;100.00
48624;BME280;34422;45.802;16.114;2023-11-19T09:08:15;64304.03;;;4.81;100.00
48624;BME280;34422;45.802;16.114;2023-11-19T09:10:45;64302.94;;;4.75;100.00
48624;BME280;34422;45.802;16.114;2023-11-19T09:13:20;64314.75;;;4.89;100.00
48624;BME280;34422;45.802;16.114;2023-11-19T09:15:49;64312.09;;;4.89;100.00
48624;BME280;34422;45.802;16.114;2023-11-19T09:18:19;64323.84;;;4.97;100.00
48624;BME280;34422;45.802;16.114;2023-11-19T09:20:52;64323.88;;;5.00;100.00
48624;BME280;34422;45.802;16.114;2023-11-19T09:23:25;64367.75;;;5.36;100.00
48624;BME280;34422;45.802;16.114;2023-11-19T09:25:59;64379.59;;;5.53;100.00
48624;BME280;34422;45.802;16.114;2023-11-19T09:28:36;64426.75;;;5.95;100.00
48624;BME280;34422;45.802;16.114;2023-11-19T09:31:21;64451.44;;;6.23;100.00
48624;BME280;34422;45.802;16.114;2023-11-19T09:33:56;64494.34;;;6.61;100.00
48624;BME280;34422;45.802;16.114;2023-11-19T09:36:37;64478.25;;;6.46;100.00
48624;BME280;34422;45.802;16.114;2023-11-19T09:39:11;64423.00;;;5.91;100.00
48624;BME280;34422;45.802;16.114;2023-11-19T09:41:49;64501.84;;;6.68;100.00
48624;BME280;34422;45.802;16.114;2023-11-19T09:44:17;64483.63;;;6.56;100.00
48624;BME280;34422;45.802;16.114;2023-11-19T09:46:53;64502.88;;;6.64;100.00
48624;BME280;34422;45.802;16.114;2023-11-19T09:49:46;64520.63;;;6.86;100.00
48624;BME280;34422;45.802;16.114;2023-11-19T09:52:14;64463.22;;;6.32;100.00
48624;BME280;34422;45.802;16.114;2023-11-19T09:54:41;64479.84;;;6.48;100.00
48624;BME280;34422;45.802;16.114;2023-11-19T09:57:09;64501.84;;;6.68;100.00
48624;BME280;34422;45.802;16.114;2023-11-19T09:59:41;64494.34;;;6.61;100.00
48624;BME280;34422;45.802;16.114;2023-11-19T10:02:15;64438.03;;;6.08;100.00
48624;BME280;34422;45.802;16.114;2023-11-19T10:04:45;64433.19;;;6.01;100.00
48624;BME280;34422;45.802;16.114;2023-11-19T10:07:13;64412.84;;;5.87;100.00
48624;BME280;34422;45.802;16.114;2023-11-19T10:09:40;64433.72;;;6.04;100.00
48624;BME280;34422;45.802;16.114;2023-11-19T10:12:07;64404.78;;;5.79;100.00
48624;BME280;34422;45.802;16.114;2023-11-19T10:14:35;64443.41;;;6.13;100.00
48624;BME280;34422;45.802;16.114;2023-11-19T10:17:09;64477.69;;;6.43;100.00
48624;BME280;34422;45.802;16.114;2023-11-19T10:19:36;64437.50;;;6.07;100.00
48624;BME280;34422;45.802;16.114;2023-11-19T10:22:06;64434.25;;;5.99;100.00
48624;BME280;34422;45.802;16.114;2023-11-19T10:24:34;64447.13;;;6.17;100.00
48624;BME280;34422;45.802;16.114;2023-11-19T10:27:01;64438.06;;;6.11;100.00
48624;BME280;34422;45.802;16.114;2023-11-19T10:29:30;64453.59;;;6.23;100.00
48624;BME280;34422;45.802;16.114;2023-11-19T10:31:58;64469.63;;;6.33;100.00
48624;BME280;34422;45.802;16.114;2023-11-19T10:34:26;64468.63;;;6.39;100.00
48624;BME280;34422;45.802;16.114;2023-11-19T10:36:53;64492.22;;;6.64;100.00
48624;BME280;34422;45.802;16.114;2023-11-19T10:39:20;64513.66;;;6.80;100.00
48624;BME280;34422;45.802;16.114;2023-11-19T10:41:47;64545.81;;;7.05;100.00
48624;BME280;34422;45.802;16.114;2023-11-19T10:44:31;64541.03;;;7.05;100.00
48624;BME280;34422;45.802;16.114;2023-11-19T10:46:59;64497.53;;;6.59;100.00
48624;BME280;34422;45.802;16.114;2023-11-19T10:49:26;64472.91;;;6.41;100.00
48624;BME280;34422;45.802;16.114;2023-11-19T10:51:53;64504.00;;;6.70;100.00
48624;BME280;34422;45.802;16.114;2023-11-19T10:54:24;64553.91;;;7.20;100.00
48624;BME280;34422;45.802;16.114;2023-11-19T10:56:58;64563.00;;;7.26;100.00
48624;BME280;34422;45.802;16.114;2023-11-19T10:59:30;64542.06;;;7.04;100.00
48624;BME280;34422;45.802;16.114;2023-11-19T11:02:00;64557.66;;;7.21;100.00
48624;BME280;34422;45.802;16.114;2023-11-19T11:04:31;64522.22;;;6.88;100.00
48624;BME280;34422;45.802;16.114;2023-11-19T11:07:00;64481.47;;;6.49;100.00
48624;BME280;34422;45.802;16.114;2023-11-19T11:09:30;64528.16;;;6.96;100.00
48624;BME280;34422;45.802;16.114;2023-11-19T11:11:59;64514.72;;;6.81;100.00
48624;BME280;34422;45.802;16.114;2023-11-19T11:14:26;64532.97;;;6.98;100.00
48624;BME280;34422;45.802;16.114;2023-11-19T11:16:53;64539.97;;;7.07;100.00
48624;BME280;34422;45.802;16.114;2023-11-19T11:19:23;64556.03;;;7.17;100.00
48624;BME280;34422;45.802;16.114;2023-11-19T11:21:52;64554.44;;;7.18;100.00
48624;BME280;34422;45.802;16.114;2023-11-19T11:30:39;64520.09;;;6.88;100.00
48624;BME280;34422;45.802;16.114;2023-11-19T11:36:06;64531.31;;;6.91;100.00
48624;BME280;34422;45.802;16.114;2023-11-19T11:38:37;64555.53;;;7.22;100.00
48624;BME280;34422;45.802;16.114;2023-11-19T11:41:22;64537.78;;;7.02;100.00
48624;BME280;34422;45.802;16.114;2023-11-19T11:43:51;64515.81;;;6.82;100.00
48624;BME280;34422;45.802;16.114;2023-11-19T11:49:05;64527.09;;;6.95;100.00
48624;BME280;34422;45.802;16.114;2023-11-19T11:57:12;64550.69;;;7.17;100.00
48624;BME280;34422;45.802;16.114;2023-11-19T12:02:08;64565.19;;;7.31;100.00
48624;BME280;34422;45.802;16.114;2023-11-19T12:04:36;64585.56;;;7.47;100.00
48624;BME280;34422;45.802;16.114;2023-11-19T12:07:08;64601.69;;;7.63;100.00
48624;BME280;34422;45.802;16.114;2023-11-19T12:09:42;64605.41;;;7.66;100.00
48624;BME280;34422;45.802;16.114;2023-11-19T12:19:59;64606.50;;;7.67;100.00
48624;BME280;34422;45.802;16.114;2023-11-19T12:22:26;64584.50;;;7.46;100.00
48624;BME280;34422;45.802;16.114;2023-11-19T12:24:54;64546.91;;;7.11;100.00
48624;BME280;34422;45.802;16.114;2023-11-19T12:27:21;64556.03;;;7.20;100.00
48624;BME280;34422;45.802;16.114;2023-11-19T12:29:49;64600.06;;;7.61;100.00
48624;BME280;34422;45.802;16.114;2023-11-19T12:32:16;64616.19;;;7.81;100.00
48624;BME280;34422;45.802;16.114;2023-11-19T12:34:43;64646.22;;;8.00;100.00
48624;BME280;34422;45.802;16.114;2023-11-19T12:37:11;64652.69;;;8.13;100.00
48624;BME280;34422;45.802;16.114;2023-11-19T12:39:38;64663.97;;;8.21;100.00
48624;BME280;34422;45.802;16.114;2023-11-19T12:42:05;64689.78;;;8.48;100.00
48624;BME280;34422;45.802;16.114;2023-11-19T12:44:31;64691.91;;;8.48;100.00
48624;BME280;34422;45.802;16.114;2023-11-19T12:49:29;64694.59;;;8.50;100.00
48624;BME280;34422;45.802;16.114;2023-11-19T12:51:56;64698.91;;;8.54;100.00
48624;BME280;34422;45.802;16.114;2023-11-19T12:54:44;64680.66;;;8.40;100.00
48624;BME280;34422;45.802;16.114;2023-11-19T12:57:14;64698.94;;;8.60;100.00
48624;BME280;34422;45.802;16.114;2023-11-19T12:59:41;64717.72;;;8.70;100.00
48624;BME280;34422;45.802;16.114;2023-11-19T13:02:08;64715.56;;;8.70;100.00
48624;BME280;34422;45.802;16.114;2023-11-19T13:04:35;64709.66;;;8.67;100.00
48624;BME280;34422;45.802;16.114;2023-11-19T13:07:02;64705.38;;;8.61;100.00
48624;BME280;34422;45.802;16.114;2023-11-19T13:09:31;64719.88;;;8.74;100.00
48624;BME280;34422;45.802;16.114;2023-11-19T13:11:58;64727.94;;;8.82;100.00
48624;BME280;34422;45.802;16.114;2023-11-19T13:14:37;64721.50;;;8.78;100.00
48624;BME280;34422;45.802;16.114;2023-11-19T13:17:05;64725.25;;;8.79;100.00
48624;BME280;34422;45.802;16.114;2023-11-19T13:19:32;64713.97;;;8.71;100.00
48624;BME280;34422;45.802;16.114;2023-11-19T13:21:59;64730.63;;;8.84;100.00
48624;BME280;34422;45.802;16.114;2023-11-19T13:24:25;64746.75;;;9.00;100.00
48624;BME280;34422;45.802;16.114;2023-11-19T13:26:52;64753.72;;;9.04;100.00
48624;BME280;34422;45.802;16.114;2023-11-19T13:29:19;64759.66;;;9.14;100.00
48624;BME280;34422;45.802;16.114;2023-11-19T13:31:46;64753.19;;;9.06;100.00
48624;BME280;34422;45.802;16.114;2023-11-19T13:34:13;64730.63;;;8.89;100.00